sensor_id;sensor_type;location;lat;lon;timestamp;pressure;altitude;pressure_sealevel;temperature
72278;BMP280;61204;49.980;8.358;2022-08-21T00:00:20;100754.13;;;17.98
72278;BMP280;61204;49.980;8.358;2022-08-21T00:03:10;100739.22;;;17.89
72278;BMP280;61204;49.980;8.358;2022-08-21T00:05:42;100735.63;;;17.87
72278;BMP280;61204;49.980;8.358;2022-08-21T00:08:16;100736.28;;;17.85
72278;BMP280;61204;49.980;8.358;2022-08-21T00:10:43;100740.84;;;17.78
72278;BMP280;61204;49.980;8.358;2022-08-21T00:13:10;100741.38;;;17.75
72278;BMP280;61204;49.980;8.358;2022-08-21T00:15:38;100736.66;;;17.77
72278;BMP280;61204;49.980;8.358;2022-08-21T00:18:07;100734.41;;;17.74
72278;BMP280;61204;49.980;8.358;2022-08-21T00:20:37;100737.03;;;17.70
72278;BMP280;61204;49.980;8.358;2022-08-21T00:23:04;100735.22;;;17.61
72278;BMP280;61204;49.980;8.358;2022-08-21T00:25:31;100737.81;;;17.57
72278;BMP280;61204;49.980;8.358;2022-08-21T00:27:57;100747.38;;;17.53
72278;BMP280;61204;49.980;8.358;2022-08-21T00:30:24;100732.94;;;17.55
72278;BMP280;61204;49.980;8.358;2022-08-21T00:32:53;100734.53;;;17.60
72278;BMP280;61204;49.980;8.358;2022-08-21T00:35:36;100727.38;;;17.55
72278;BMP280;61204;49.980;8.358;2022-08-21T00:38:07;100736.47;;;17.58
72278;BMP280;61204;49.980;8.358;2022-08-21T00:40:37;100735.03;;;17.88
72278;BMP280;61204;49.980;8.358;2022-08-21T00:43:16;100739.72;;;18.01
72278;BMP280;61204;49.980;8.358;2022-08-21T00:45:47;100738.41;;;17.87
72278;BMP280;61204;49.980;8.358;2022-08-21T00:48:15;100731.91;;;17.80
72278;BMP280;61204;49.980;8.358;2022-08-21T00:50:57;100736.56;;;17.75
72278;BMP280;61204;49.980;8.358;2022-08-21T00:53:36;100733.25;;;17.63
72278;BMP280;61204;49.980;8.358;2022-08-21T00:56:19;100740.59;;;17.57
72278;BMP280;61204;49.980;8.358;2022-08-21T00:58:51;100740.41;;;17.52
72278;BMP280;61204;49.980;8.358;2022-08-21T01:01:19;100737.13;;;17.40
72278;BMP280;61204;49.980;8.358;2022-08-21T01:03:45;100738.09;;;17.31
72278;BMP280;61204;49.980;8.358;2022-08-21T01:06:12;100736.31;;;17.22
72278;BMP280;61204;49.980;8.358;2022-08-21T01:08:38;100739.44;;;17.14
72278;BMP280;61204;49.980;8.358;2022-08-21T01:11:04;100741.81;;;17.06
72278;BMP280;61204;49.980;8.358;2022-08-21T01:13:34;100734.66;;;17.01
72278;BMP280;61204;49.980;8.358;2022-08-21T01:16:05;100742.97;;;17.01
72278;BMP280;61204;49.980;8.358;2022-08-21T01:18:34;100739.31;;;16.97
72278;BMP280;61204;49.980;8.358;2022-08-21T01:21:11;100736.91;;;17.05
72278;BMP280;61204;49.980;8.358;2022-08-21T01:23:51;100728.88;;;17.27
72278;BMP280;61204;49.980;8.358;2022-08-21T01:26:23;100738.97;;;17.20
72278;BMP280;61204;49.980;8.358;2022-08-21T01:28:58;100734.19;;;17.20
72278;BMP280;61204;49.980;8.358;2022-08-21T01:31:29;100736.75;;;17.16
72278;BMP280;61204;49.980;8.358;2022-08-21T01:33:57;100737.88;;;17.11
72278;BMP280;61204;49.980;8.358;2022-08-21T01:36:23;100736.09;;;17.02
72278;BMP280;61204;49.980;8.358;2022-08-21T01:38:50;100733.16;;;16.98
72278;BMP280;61204;49.980;8.358;2022-08-21T01:41:16;100727.88;;;16.88
72278;BMP280;61204;49.980;8.358;2022-08-21T01:43:43;100726.25;;;16.83
72278;BMP280;61204;49.980;8.358;2022-08-21T01:46:10;100728.72;;;16.77
72278;BMP280;61204;49.980;8.358;2022-08-21T01:48:37;100720.16;;;16.71
72278;BMP280;61204;49.980;8.358;2022-08-21T01:51:04;100726.53;;;16.60
72278;BMP280;61204;49.980;8.358;2022-08-21T01:53:32;100720.00;;;16.53
72278;BMP280;61204;49.980;8.358;2022-08-21T01:56:03;100721.13;;;16.48
72278;BMP280;61204;49.980;8.358;2022-08-21T01:58:32;100727.81;;;16.43
72278;BMP280;61204;49.980;8.358;2022-08-21T02:00:59;100721.34;;;16.39
72278;BMP280;61204;49.980;8.358;2022-08-21T02:03:28;100721.16;;;16.34
72278;BMP280;61204;49.980;8.358;2022-08-21T02:05:54;100712.06;;;16.32
72278;BMP280;61204;49.980;8.358;2022-08-21T02:08:21;100709.28;;;16.32
72278;BMP280;61204;49.980;8.358;2022-08-21T02:10:49;100700.91;;;16.30
72278;BMP280;61204;49.980;8.358;2022-08-21T02:13:17;100708.28;;;16.25
72278;BMP280;61204;49.980;8.358;2022-08-21T02:15:44;100707.38;;;16.21
72278;BMP280;61204;49.980;8.358;2022-08-21T02:18:10;100713.41;;;16.17
72278;BMP280;61204;49.980;8.358;2022-08-21T02:20:40;100713.91;;;16.14
72278;BMP280;61204;49.980;8.358;2022-08-21T02:23:10;100709.72;;;16.13
72278;BMP280;61204;49.980;8.358;2022-08-21T02:25:38;100709.63;;;16.11
72278;BMP280;61204;49.980;8.358;2022-08-21T02:28:12;100722.47;;;16.04
72278;BMP280;61204;49.980;8.358;2022-08-21T02:30:46;100712.41;;;15.97
72278;BMP280;61204;49.980;8.358;2022-08-21T02:33:14;100706.69;;;15.93
72278;BMP280;61204;49.980;8.358;2022-08-21T02:35:41;100705.03;;;15.88
72278;BMP280;61204;49.980;8.358;2022-08-21T02:38:12;100701.47;;;15.85
72278;BMP280;61204;49.980;8.358;2022-08-21T02:40:44;100702.56;;;15.80
72278;BMP280;61204;49.980;8.358;2022-08-21T02:43:13;100701.13;;;15.79
72278;BMP280;61204;49.980;8.358;2022-08-21T02:45:41;100709.16;;;15.73
72278;BMP280;61204;49.980;8.358;2022-08-21T02:48:11;100704.94;;;15.72
72278;BMP280;61204;49.980;8.358;2022-08-21T02:50:43;100702.59;;;15.66
72278;BMP280;61204;49.980;8.358;2022-08-21T02:53:15;100706.47;;;15.61
72278;BMP280;61204;49.980;8.358;2022-08-21T02:55:46;100701.44;;;15.58
72278;BMP280;61204;49.980;8.358;2022-08-21T02:58:17;100701.97;;;15.54
72278;BMP280;61204;49.980;8.358;2022-08-21T03:00:49;100712.69;;;15.48
72278;BMP280;61204;49.980;8.358;2022-08-21T03:03:16;100711.16;;;15.45
72278;BMP280;61204;49.980;8.358;2022-08-21T03:05:43;100724.25;;;15.44
72278;BMP280;61204;49.980;8.358;2022-08-21T03:08:11;100710.13;;;15.38
72278;BMP280;61204;49.980;8.358;2022-08-21T03:10:42;100705.41;;;15.41
72278;BMP280;61204;49.980;8.358;2022-08-21T03:13:15;100703.28;;;15.39
72278;BMP280;61204;49.980;8.358;2022-08-21T03:15:43;100706.44;;;15.34
72278;BMP280;61204;49.980;8.358;2022-08-21T03:18:11;100695.38;;;15.34
72278;BMP280;61204;49.980;8.358;2022-08-21T03:20:40;100694.16;;;15.37
72278;BMP280;61204;49.980;8.358;2022-08-21T03:23:08;100695.91;;;15.44
72278;BMP280;61204;49.980;8.358;2022-08-21T03:25:35;100693.88;;;15.44
72278;BMP280;61204;49.980;8.358;2022-08-21T03:28:02;100690.97;;;15.42
72278;BMP280;61204;49.980;8.358;2022-08-21T03:30:31;100706.16;;;15.55
72278;BMP280;61204;49.980;8.358;2022-08-21T03:32:58;100705.44;;;15.55
72278;BMP280;61204;49.980;8.358;2022-08-21T03:35:25;100698.47;;;15.54
72278;BMP280;61204;49.980;8.358;2022-08-21T03:37:52;100695.28;;;15.45
72278;BMP280;61204;49.980;8.358;2022-08-21T03:40:21;100691.09;;;15.44
72278;BMP280;61204;49.980;8.358;2022-08-21T03:42:49;100692.63;;;15.34
72278;BMP280;61204;49.980;8.358;2022-08-21T03:45:16;100697.00;;;15.25
72278;BMP280;61204;49.980;8.358;2022-08-21T03:47:58;100700.66;;;15.16
72278;BMP280;61204;49.980;8.358;2022-08-21T03:50:32;100706.44;;;15.08
72278;BMP280;61204;49.980;8.358;2022-08-21T03:53:03;100713.19;;;15.05
72278;BMP280;61204;49.980;8.358;2022-08-21T03:55:31;100712.16;;;14.99
72278;BMP280;61204;49.980;8.358;2022-08-21T03:57:56;100709.69;;;14.91
72278;BMP280;61204;49.980;8.358;2022-08-21T04:00:24;100708.00;;;14.86
72278;BMP280;61204;49.980;8.358;2022-08-21T04:02:50;100711.59;;;14.88
72278;BMP280;61204;49.980;8.358;2022-08-21T04:05:16;100712.22;;;14.87
72278;BMP280;61204;49.980;8.358;2022-08-21T04:07:53;100716.19;;;14.84
72278;BMP280;61204;49.980;8.358;2022-08-21T04:10:25;100720.06;;;14.79
72278;BMP280;61204;49.980;8.358;2022-08-21T04:12:54;100715.75;;;14.76
72278;BMP280;61204;49.980;8.358;2022-08-21T04:15:21;100718.53;;;14.76
72278;BMP280;61204;49.980;8.358;2022-08-21T04:17:49;100725.56;;;14.79
72278;BMP280;61204;49.980;8.358;2022-08-21T04:20:16;100728.13;;;14.75
72278;BMP280;61204;49.980;8.358;2022-08-21T04:22:44;100727.84;;;14.71
72278;BMP280;61204;49.980;8.358;2022-08-21T04:25:12;100738.56;;;14.65
72278;BMP280;61204;49.980;8.358;2022-08-21T04:27:39;100732.84;;;14.61
72278;BMP280;61204;49.980;8.358;2022-08-21T04:30:06;100728.03;;;14.61
72278;BMP280;61204;49.980;8.358;2022-08-21T04:32:37;100729.47;;;14.62
72278;BMP280;61204;49.980;8.358;2022-08-21T04:35:09;100736.91;;;14.59
72278;BMP280;61204;49.980;8.358;2022-08-21T04:37:36;100741.81;;;14.61
72278;BMP280;61204;49.980;8.358;2022-08-21T04:40:03;100745.44;;;14.64
72278;BMP280;61204;49.980;8.358;2022-08-21T04:42:32;100743.47;;;14.66
72278;BMP280;61204;49.980;8.358;2022-08-21T04:44:58;100750.91;;;14.75
72278;BMP280;61204;49.980;8.358;2022-08-21T04:47:24;100755.03;;;14.88
72278;BMP280;61204;49.980;8.358;2022-08-21T04:49:50;100755.00;;;15.00
72278;BMP280;61204;49.980;8.358;2022-08-21T04:52:19;100754.47;;;15.15
72278;BMP280;61204;49.980;8.358;2022-08-21T04:54:48;100760.13;;;15.31
72278;BMP280;61204;49.980;8.358;2022-08-21T04:57:17;100755.38;;;15.45
72278;BMP280;61204;49.980;8.358;2022-08-21T04:59:49;100757.75;;;15.64
72278;BMP280;61204;49.980;8.358;2022-08-21T05:02:17;100754.59;;;15.84
72278;BMP280;61204;49.980;8.358;2022-08-21T05:04:50;100763.63;;;15.98
72278;BMP280;61204;49.980;8.358;2022-08-21T05:07:22;100764.66;;;16.18
72278;BMP280;61204;49.980;8.358;2022-08-21T05:09:53;100768.50;;;16.41
72278;BMP280;61204;49.980;8.358;2022-08-21T05:12:20;100767.31;;;16.59
72278;BMP280;61204;49.980;8.358;2022-08-21T05:14:47;100777.41;;;16.82
72278;BMP280;61204;49.980;8.358;2022-08-21T05:17:13;100770.66;;;17.01
72278;BMP280;61204;49.980;8.358;2022-08-21T05:19:39;100774.13;;;17.31
72278;BMP280;61204;49.980;8.358;2022-08-21T05:22:05;100774.84;;;17.47
72278;BMP280;61204;49.980;8.358;2022-08-21T05:24:32;100777.34;;;17.73
72278;BMP280;61204;49.980;8.358;2022-08-21T05:26:58;100777.94;;;17.87
72278;BMP280;61204;49.980;8.358;2022-08-21T05:29:25;100779.06;;;18.13
72278;BMP280;61204;49.980;8.358;2022-08-21T05:31:51;100776.81;;;18.26
72278;BMP280;61204;49.980;8.358;2022-08-21T05:34:22;100776.44;;;18.51
72278;BMP280;61204;49.980;8.358;2022-08-21T05:36:49;100782.94;;;18.58
72278;BMP280;61204;49.980;8.358;2022-08-21T05:39:15;100771.28;;;18.61
72278;BMP280;61204;49.980;8.358;2022-08-21T05:41:41;100777.16;;;18.69
72278;BMP280;61204;49.980;8.358;2022-08-21T05:44:07;100779.91;;;18.87
72278;BMP280;61204;49.980;8.358;2022-08-21T05:46:33;100784.31;;;19.12
72278;BMP280;61204;49.980;8.358;2022-08-21T05:48:59;100786.50;;;19.33
72278;BMP280;61204;49.980;8.358;2022-08-21T05:51:24;100778.28;;;19.57
72278;BMP280;61204;49.980;8.358;2022-08-21T05:53:50;100771.25;;;19.74
72278;BMP280;61204;49.980;8.358;2022-08-21T05:56:16;100779.28;;;19.86
72278;BMP280;61204;49.980;8.358;2022-08-21T05:58:42;100783.88;;;20.19
72278;BMP280;61204;49.980;8.358;2022-08-21T06:01:08;100788.41;;;20.30
72278;BMP280;61204;49.980;8.358;2022-08-21T06:03:37;100785.09;;;20.14
72278;BMP280;61204;49.980;8.358;2022-08-21T06:06:06;100788.78;;;20.20
72278;BMP280;61204;49.980;8.358;2022-08-21T06:08:32;100775.34;;;20.35
72278;BMP280;61204;49.980;8.358;2022-08-21T06:11:05;100780.81;;;20.54
72278;BMP280;61204;49.980;8.358;2022-08-21T06:13:32;100776.97;;;20.66
72278;BMP280;61204;49.980;8.358;2022-08-21T06:16:07;100780.78;;;20.76
72278;BMP280;61204;49.980;8.358;2022-08-21T06:18:39;100779.66;;;20.85
72278;BMP280;61204;49.980;8.358;2022-08-21T06:21:06;100780.19;;;20.80
72278;BMP280;61204;49.980;8.358;2022-08-21T06:23:34;100788.16;;;21.15
72278;BMP280;61204;49.980;8.358;2022-08-21T06:26:01;100780.44;;;21.38
72278;BMP280;61204;49.980;8.358;2022-08-21T06:28:30;100779.72;;;21.91
72278;BMP280;61204;49.980;8.358;2022-08-21T06:30:56;100772.59;;;22.14
72278;BMP280;61204;49.980;8.358;2022-08-21T06:33:22;100784.59;;;22.18
72278;BMP280;61204;49.980;8.358;2022-08-21T06:35:49;100776.94;;;22.51
72278;BMP280;61204;49.980;8.358;2022-08-21T06:38:15;100782.59;;;22.53
72278;BMP280;61204;49.980;8.358;2022-08-21T06:40:42;100779.66;;;22.81
72278;BMP280;61204;49.980;8.358;2022-08-21T06:43:11;100780.28;;;23.11
72278;BMP280;61204;49.980;8.358;2022-08-21T06:45:41;100772.69;;;23.16
72278;BMP280;61204;49.980;8.358;2022-08-21T06:48:08;100778.19;;;23.10
72278;BMP280;61204;49.980;8.358;2022-08-21T06:50:35;100781.16;;;22.84
72278;BMP280;61204;49.980;8.358;2022-08-21T06:53:11;100781.75;;;23.14
72278;BMP280;61204;49.980;8.358;2022-08-21T06:55:39;100779.09;;;23.61
72278;BMP280;61204;49.980;8.358;2022-08-21T06:58:07;100777.25;;;23.75
72278;BMP280;61204;49.980;8.358;2022-08-21T07:00:37;100777.31;;;23.77
72278;BMP280;61204;49.980;8.358;2022-08-21T07:03:06;100776.16;;;23.95
72278;BMP280;61204;49.980;8.358;2022-08-21T07:05:32;100779.09;;;23.61
72278;BMP280;61204;49.980;8.358;2022-08-21T07:07:58;100786.25;;;24.14
72278;BMP280;61204;49.980;8.358;2022-08-21T07:10:26;100769.25;;;24.48
72278;BMP280;61204;49.980;8.358;2022-08-21T07:12:53;100777.47;;;24.90
72278;BMP280;61204;49.980;8.358;2022-08-21T07:15:20;100775.31;;;25.55
72278;BMP280;61204;49.980;8.358;2022-08-21T07:17:45;100772.75;;;25.88
72278;BMP280;61204;49.980;8.358;2022-08-21T07:20:11;100778.53;;;26.12
72278;BMP280;61204;49.980;8.358;2022-08-21T07:22:38;100778.56;;;26.18
72278;BMP280;61204;49.980;8.358;2022-08-21T07:25:06;100784.28;;;26.32
72278;BMP280;61204;49.980;8.358;2022-08-21T07:27:33;100784.22;;;26.28
72278;BMP280;61204;49.980;8.358;2022-08-21T07:29:59;100776.56;;;26.47
72278;BMP280;61204;49.980;8.358;2022-08-21T07:32:24;100782.25;;;26.49
72278;BMP280;61204;49.980;8.358;2022-08-21T07:34:50;100778.88;;;26.97
72278;BMP280;61204;49.980;8.358;2022-08-21T07:37:17;100774.66;;;27.18
72278;BMP280;61204;49.980;8.358;2022-08-21T07:39:44;100781.00;;;27.01
72278;BMP280;61204;49.980;8.358;2022-08-21T07:42:13;100765.53;;;27.18
72278;BMP280;61204;49.980;8.358;2022-08-21T07:44:39;100763.44;;;27.31
72278;BMP280;61204;49.980;8.358;2022-08-21T07:47:07;100772.59;;;27.33
72278;BMP280;61204;49.980;8.358;2022-08-21T07:49:33;100773.31;;;27.68
72278;BMP280;61204;49.980;8.358;2022-08-21T07:51:59;100769.06;;;27.83
72278;BMP280;61204;49.980;8.358;2022-08-21T07:54:25;100766.22;;;27.85
72278;BMP280;61204;49.980;8.358;2022-08-21T07:56:51;100769.72;;;27.92
72278;BMP280;61204;49.980;8.358;2022-08-21T07:59:17;100765.56;;;27.65
72278;BMP280;61204;49.980;8.358;2022-08-21T08:01:42;100761.34;;;27.33
72278;BMP280;61204;49.980;8.358;2022-08-21T08:04:08;100755.72;;;27.39
72278;BMP280;61204;49.980;8.358;2022-08-21T08:06:34;100754.19;;;28.01
72278;BMP280;61204;49.980;8.358;2022-08-21T08:09:00;100760.50;;;28.18
72278;BMP280;61204;49.980;8.358;2022-08-21T08:11:28;100754.13;;;28.21
72278;BMP280;61204;49.980;8.358;2022-08-21T08:13:55;100753.94;;;28.62
72278;BMP280;61204;49.980;8.358;2022-08-21T08:16:22;100752.81;;;29.92
72278;BMP280;61204;49.980;8.358;2022-08-21T08:18:48;100751.16;;;30.11
72278;BMP280;61204;49.980;8.358;2022-08-21T08:21:17;100753.00;;;30.35
72278;BMP280;61204;49.980;8.358;2022-08-21T08:23:46;100751.16;;;30.64
72278;BMP280;61204;49.980;8.358;2022-08-21T08:26:12;100748.94;;;30.73
72278;BMP280;61204;49.980;8.358;2022-08-21T08:28:44;100737.19;;;30.99
72278;BMP280;61204;49.980;8.358;2022-08-21T08:31:13;100738.25;;;31.19
72278;BMP280;61204;49.980;8.358;2022-08-21T08:33:39;100746.84;;;30.18
72278;BMP280;61204;49.980;8.358;2022-08-21T08:36:14;100747.94;;;30.44
72278;BMP280;61204;49.980;8.358;2022-08-21T08:38:47;100743.59;;;29.95
72278;BMP280;61204;49.980;8.358;2022-08-21T08:41:14;100738.25;;;29.69
72278;BMP280;61204;49.980;8.358;2022-08-21T08:43:53;100735.19;;;29.89
72278;BMP280;61204;49.980;8.358;2022-08-21T08:46:41;100734.66;;;30.81
72278;BMP280;61204;49.980;8.358;2022-08-21T08:49:23;100727.06;;;31.49
72278;BMP280;61204;49.980;8.358;2022-08-21T08:52:40;100729.88;;;31.52
72278;BMP280;61204;49.980;8.358;2022-08-21T08:55:23;100727.03;;;31.52
72278;BMP280;61204;49.980;8.358;2022-08-21T08:58:27;100716.16;;;32.30
72278;BMP280;61204;49.980;8.358;2022-08-21T09:00:57;100720.59;;;31.90
72278;BMP280;61204;49.980;8.358;2022-08-21T09:03:25;100723.59;;;31.06
72278;BMP280;61204;49.980;8.358;2022-08-21T09:12:50;100720.44;;;31.24
72278;BMP280;61204;49.980;8.358;2022-08-21T18:59:04;100448.41;;;24.57
72278;BMP280;61204;49.980;8.358;2022-08-21T19:01:31;100450.47;;;24.48
72278;BMP280;61204;49.980;8.358;2022-08-21T19:03:58;100450.38;;;24.40
72278;BMP280;61204;49.980;8.358;2022-08-21T19:06:24;100462.91;;;24.31
72278;BMP280;61204;49.980;8.358;2022-08-21T19:08:49;100464.91;;;24.21
72278;BMP280;61204;49.980;8.358;2022-08-21T19:11:15;100462.72;;;24.11
72278;BMP280;61204;49.980;8.358;2022-08-21T19:13:42;100462.66;;;24.07
72278;BMP280;61204;49.980;8.358;2022-08-21T19:16:08;100479.41;;;24.01
72278;BMP280;61204;49.980;8.358;2022-08-21T19:18:38;100466.69;;;23.90
72278;BMP280;61204;49.980;8.358;2022-08-21T19:21:05;100468.66;;;23.79
72278;BMP280;61204;49.980;8.358;2022-08-21T19:23:32;100463.66;;;23.69
72278;BMP280;61204;49.980;8.358;2022-08-21T19:26:00;100463.56;;;23.61
72278;BMP280;61204;49.980;8.358;2022-08-21T19:28:33;100467.63;;;23.52
72278;BMP280;61204;49.980;8.358;2022-08-21T19:31:09;100464.69;;;23.42
72278;BMP280;61204;49.980;8.358;2022-08-21T19:33:51;100464.59;;;23.32
72278;BMP280;61204;49.980;8.358;2022-08-21T19:36:31;100471.41;;;23.23
72278;BMP280;61204;49.980;8.358;2022-08-21T19:38:59;100477.00;;;23.21
72278;BMP280;61204;49.980;8.358;2022-08-21T19:41:28;100472.59;;;23.07
72278;BMP280;61204;49.980;8.358;2022-08-21T19:44:02;100468.34;;;23.04
72278;BMP280;61204;49.980;8.358;2022-08-21T19:46:34;100475.44;;;23.11
72278;BMP280;61204;49.980;8.358;2022-08-21T19:49:05;100470.03;;;23.22
72278;BMP280;61204;49.980;8.358;2022-08-21T19:51:37;100465.03;;;23.14
72278;BMP280;61204;49.980;8.358;2022-08-21T19:54:04;100469.88;;;23.09
72278;BMP280;61204;49.980;8.358;2022-08-21T19:56:31;100471.88;;;23.05
72278;BMP280;61204;49.980;8.358;2022-08-21T19:58:58;100472.44;;;22.95
72278;BMP280;61204;49.980;8.358;2022-08-21T20:01:26;100469.53;;;22.89
72278;BMP280;61204;49.980;8.358;2022-08-21T20:03:53;100465.25;;;22.82
72278;BMP280;61204;49.980;8.358;2022-08-21T20:06:21;100467.94;;;22.78
72278;BMP280;61204;49.980;8.358;2022-08-21T20:08:48;100469.38;;;22.77
72278;BMP280;61204;49.980;8.358;2022-08-21T20:11:20;100468.47;;;22.64
72278;BMP280;61204;49.980;8.358;2022-08-21T20:13:54;100470.53;;;22.66
72278;BMP280;61204;49.980;8.358;2022-08-21T20:16:22;100473.84;;;22.52
72278;BMP280;61204;49.980;8.358;2022-08-21T20:18:48;100466.72;;;22.45
72278;BMP280;61204;49.980;8.358;2022-08-21T20:21:14;100464.44;;;22.33
72278;BMP280;61204;49.980;8.358;2022-08-21T20:23:41;100463.56;;;22.25
72278;BMP280;61204;49.980;8.358;2022-08-21T20:26:07;100478.75;;;22.15
72278;BMP280;61204;49.980;8.358;2022-08-21T20:28:34;100477.13;;;22.04
72278;BMP280;61204;49.980;8.358;2022-08-21T20:31:00;100477.66;;;21.95
72278;BMP280;61204;49.980;8.358;2022-08-21T20:33:27;100480.28;;;21.86
72278;BMP280;61204;49.980;8.358;2022-08-21T20:35:53;100484.28;;;21.77
72278;BMP280;61204;49.980;8.358;2022-08-21T20:38:20;100475.75;;;21.69
72278;BMP280;61204;49.980;8.358;2022-08-21T20:40:49;100483.28;;;21.65
72278;BMP280;61204;49.980;8.358;2022-08-21T20:43:19;100486.63;;;21.57
72278;BMP280;61204;49.980;8.358;2022-08-21T20:45:47;100483.63;;;21.47
72278;BMP280;61204;49.980;8.358;2022-08-21T20:48:25;100491.09;;;21.38
72278;BMP280;61204;49.980;8.358;2022-08-21T20:51:01;100485.91;;;21.24
72278;BMP280;61204;49.980;8.358;2022-08-21T20:54:18;100496.03;;;21.10
72278;BMP280;61204;49.980;8.358;2022-08-21T20:57:26;100500.56;;;20.97
72278;BMP280;61204;49.980;8.358;2022-08-21T21:00:15;100507.31;;;20.88
72278;BMP280;61204;49.980;8.358;2022-08-21T21:05:23;100512.19;;;20.87
72278;BMP280;61204;49.980;8.358;2022-08-21T21:08:10;100512.22;;;20.89
72278;BMP280;61204;49.980;8.358;2022-08-21T21:10:59;100512.78;;;20.84
72278;BMP280;61204;49.980;8.358;2022-08-21T21:13:42;100511.22;;;20.77
72278;BMP280;61204;49.980;8.358;2022-08-21T21:16:19;100519.47;;;20.73
72278;BMP280;61204;49.980;8.358;2022-08-21T21:18:51;100513.03;;;20.66
72278;BMP280;61204;49.980;8.358;2022-08-21T21:21:29;100517.19;;;20.65
72278;BMP280;61204;49.980;8.358;2022-08-21T21:24:10;100515.00;;;20.61
72278;BMP280;61204;49.980;8.358;2022-08-21T21:27:01;100518.34;;;20.56
72278;BMP280;61204;49.980;8.358;2022-08-21T21:30:10;100518.88;;;20.50
72278;BMP280;61204;49.980;8.358;2022-08-21T21:32:51;100525.75;;;20.47
72278;BMP280;61204;49.980;8.358;2022-08-21T21:35:21;100531.34;;;20.47
72278;BMP280;61204;49.980;8.358;2022-08-21T21:38:01;100530.63;;;20.47
72278;BMP280;61204;49.980;8.358;2022-08-21T21:40:50;100538.31;;;20.48
72278;BMP280;61204;49.980;8.358;2022-08-21T21:47:03;100530.88;;;20.57
72278;BMP280;61204;49.980;8.358;2022-08-21T21:53:27;100530.22;;;20.56
72278;BMP280;61204;49.980;8.358;2022-08-21T22:02:14;100542.59;;;20.51
72278;BMP280;61204;49.980;8.358;2022-08-21T22:07:49;100537.13;;;20.55
72278;BMP280;61204;49.980;8.358;2022-08-21T22:10:41;100542.59;;;20.51
72278;BMP280;61204;49.980;8.358;2022-08-21T22:16:27;100541.28;;;20.54
72278;BMP280;61204;49.980;8.358;2022-08-21T22:18:59;100541.81;;;20.49
72278;BMP280;61204;49.980;8.358;2022-08-21T22:21:39;100541.28;;;20.54
72278;BMP280;61204;49.980;8.358;2022-08-21T22:24:32;100531.28;;;20.45
72278;BMP280;61204;49.980;8.358;2022-08-21T22:27:28;100532.50;;;20.40
72278;BMP280;61204;49.980;8.358;2022-08-21T22:30:03;100532.97;;;20.31
72278;BMP280;61204;49.980;8.358;2022-08-21T22:35:13;100523.56;;;20.18
72278;BMP280;61204;49.980;8.358;2022-08-21T22:37:56;100524.09;;;20.12
72278;BMP280;61204;49.980;8.358;2022-08-21T22:40:26;100524.25;;;20.18
72278;BMP280;61204;49.980;8.358;2022-08-21T22:43:05;100532.47;;;20.14
72278;BMP280;61204;49.980;8.358;2022-08-21T22:45:58;100521.97;;;20.11
72278;BMP280;61204;49.980;8.358;2022-08-21T22:48:37;100524.22;;;20.16
72278;BMP280;61204;49.980;8.358;2022-08-21T22:51:31;100524.09;;;20.12
72278;BMP280;61204;49.980;8.358;2022-08-21T22:54:04;100531.72;;;20.12
72278;BMP280;61204;49.980;8.358;2022-08-21T22:56:37;100534.41;;;20.08
72278;BMP280;61204;49.980;8.358;2022-08-21T22:59:39;100537.78;;;20.04
72278;BMP280;61204;49.980;8.358;2022-08-21T23:02:33;100532.22;;;20.04
72278;BMP280;61204;49.980;8.358;2022-08-21T23:07:57;100538.28;;;19.98
72278;BMP280;61204;49.980;8.358;2022-08-21T23:10:45;100536.09;;;19.95
72278;BMP280;61204;49.980;8.358;2022-08-21T23:13:14;100537.00;;;20.02
72278;BMP280;61204;49.980;8.358;2022-08-21T23:16:00;100535.28;;;19.90
72278;BMP280;61204;49.980;8.358;2022-08-21T23:19:10;100538.47;;;19.81
72278;BMP280;61204;49.980;8.358;2022-08-21T23:22:19;100536.34;;;19.79
72278;BMP280;61204;49.980;8.358;2022-08-21T23:25:44;100537.59;;;19.74
72278;BMP280;61204;49.980;8.358;2022-08-21T23:29:04;100534.56;;;19.66
72278;BMP280;61204;49.980;8.358;2022-08-21T23:31:56;100526.06;;;19.62
72278;BMP280;61204;49.980;8.358;2022-08-21T23:34:57;100526.00;;;19.60
72278;BMP280;61204;49.980;8.358;2022-08-21T23:37:47;100524.06;;;19.64
72278;BMP280;61204;49.980;8.358;2022-08-21T23:40:55;100529.25;;;19.74
72278;BMP280;61204;49.980;8.358;2022-08-21T23:46:51;100533.50;;;19.77
72278;BMP280;61204;49.980;8.358;2022-08-21T23:53:18;100536.41;;;19.81
72278;BMP280;61204;49.980;8.358;2022-08-21T23:58:54;100530.78;;;19.79
